Warning: Javascript must be enabled to use all the features on this page!


Page Loading - Please Wait...

Click to hideNews Bulletins
Click to hide state-specific text

Explore Real-time Water Data Using New Products from USGS TXWSC

View over 750 USGS real-time stream, lake, reservoir, precipitation, and groundwater stations in context with current weather and hazard conditions on both desktop and mobile devices.

Click to go to the Texas Water Dashboard Click to go to the WATER On-the-go app

Follow @USGS_TexasFlood and @USGS_TexasRain on Twitter to get current water level and precipitation data during flooding or severe rainfall events.


USGS 08195000 Frio Rv at Concan, TX

PROVISIONAL DATA SUBJECT TO REVISION

Click to hidestation-specific text
Funding for this site is provided by the cooperators / programs below:
Click to go to the Edwards Aquifer Authority web page

Edwards Aquifer Authority

Click to go to the Cooperative Matching Funds web page

Cooperative Matching Funds

 

Rainfall Disclaimer


retransmission, forecasts and summary of this location by the National Weather Service
Retransmission, forecasts and summary by the National Weather Service

National Weather Service provided floatability levels for recreational users at several locations throughout Texas.

This station managed by the San Antonio Field Unit.

Available Parameters Available Period
All 6 Available Parameters for this site
  
00010 Temperature, water 2013-07-25  2017-07-27
00045 Precipitation 2017-03-29  2017-07-27
00060 Discharge 1991-10-01  2017-07-27
00065 Gage height 2007-10-01  2017-07-27
00095 Specific cond at 25C 2013-07-02  2017-07-27
99133 NO3+NO2,water,insitu 2015-09-24  2017-07-27

Graph
Graph w/ stats
Graph w/o stats
Graph w/ (up to 3) parms
Table
Tab-separated
Days  (2)
 

  -- or --
Begin date
 

End date
 

Summary of all available data for this site
Instantaneous-data availability statement






Date / Time




Gage
height,
feet,




Dis-
charge,
ft3/s,



Precip-
itation
total,
inches,
Specif-
ic
conduc-
tance,
wat unf
uS/cm @
25 degC,



Temper-
ature,
water,
deg C,

Nitrate
+
nitrite
water,
in situ
mg/L as,
07/25/2017 00:00 CDT3.58P  46.5P  0.00P  453P  29.4P  0.24P  
07/25/2017 00:15 CDT3.57P  44.8P  0.00P  453P  29.3P     
07/25/2017 00:30 CDT3.57P  44.8P  0.00P  453P  29.3P     
07/25/2017 00:45 CDT3.58P  46.5P  0.00P  453P  29.2P     
07/25/2017 01:00 CDT3.58P  46.5P  0.00P  453P  29.2P  0.24P  
07/25/2017 01:15 CDT3.58P  46.5P  0.00P  453P  29.1P     
07/25/2017 01:30 CDT3.58P  46.5P  0.00P  453P  29.1P     
07/25/2017 01:45 CDT3.58P  46.5P  0.00P  453P  29.1P     
07/25/2017 02:00 CDT3.58P  46.5P  0.00P  453P  29.1P  0.24P  
07/25/2017 02:15 CDT3.57P  44.8P  0.00P  454P  29.0P     
07/25/2017 02:30 CDT3.57P  44.8P  0.00P  454P  29.0P     
07/25/2017 02:45 CDT3.58P  46.5P  0.00P  455P  29.0P     
07/25/2017 03:00 CDT3.58P  46.5P  0.00P  456P  28.9P  0.25P  
07/25/2017 03:15 CDT3.58P  46.5P  0.00P  456P  28.9P     
07/25/2017 03:30 CDT3.58P  46.5P  0.00P  457P  28.9P     
07/25/2017 03:45 CDT3.57P  44.8P  0.00P  457P  28.8P     
07/25/2017 04:00 CDT3.58P  46.5P  0.00P  457P  28.8P  0.25P  
07/25/2017 04:15 CDT3.58P  46.5P  0.00P  457P  28.8P     
07/25/2017 04:30 CDT3.58P  46.5P  0.00P  457P  28.7P     
07/25/2017 04:45 CDT3.58P  46.5P  0.00P  457P  28.7P     
07/25/2017 05:00 CDT3.58P  46.5P  0.00P  457P  28.6P  0.25P  
07/25/2017 05:15 CDT3.57P  44.8P  0.00P  457P  28.6P     
07/25/2017 05:30 CDT3.57P  44.8P  0.00P  457P  28.6P     
07/25/2017 05:45 CDT3.58P  46.5P  0.00P  457P  28.5P     
07/25/2017 06:00 CDT3.58P  46.5P  0.00P  457P  28.5P  0.25P  
07/25/2017 06:15 CDT3.58P  46.5P  0.00P  457P  28.4P     
07/25/2017 06:30 CDT3.58P  46.5P  0.00P  456P  28.4P     
07/25/2017 06:45 CDT3.58P  46.5P  0.00P  457P  28.3P     
07/25/2017 07:00 CDT3.59P  48.3P  0.00P  457P  28.2P  0.25P  
07/25/2017 07:15 CDT3.58P  46.5P  0.00P  457P  28.2P     
07/25/2017 07:30 CDT3.57P  44.8P  0.00P  457P  28.2P     
07/25/2017 07:45 CDT3.58P  46.5P  0.00P  457P  28.1P     
07/25/2017 08:00 CDT3.58P  46.5P  0.00P  458P  28.0P  0.25P  
07/25/2017 08:15 CDT3.58P  46.5P  0.00P  458P  28.0P     
07/25/2017 08:30 CDT3.58P  46.5P  0.00P  459P  27.9P     
07/25/2017 08:45 CDT3.58P  46.5P  0.00P  459P  27.9P     
07/25/2017 09:00 CDT3.58P  46.5P  0.00P  460P  27.8P  0.26P  
07/25/2017 09:15 CDT3.58P  46.5P  0.00P  460P  27.8P     
07/25/2017 09:30 CDT3.58P  46.5P  0.00P  461P  27.7P     
07/25/2017 09:45 CDT3.58P  46.5P  0.00P  461P  27.7P     
07/25/2017 10:00 CDT3.58P  46.5P  0.00P  462P  27.6P  0.26P  
07/25/2017 10:15 CDT3.59P  48.3P  0.00P  462P  27.6P     
07/25/2017 10:30 CDT3.58P  46.5P  0.00P  463P  27.6P     
07/25/2017 10:45 CDT3.57P  44.8P  0.00P  464P  27.6P     
07/25/2017 11:00 CDT3.57P  44.8P  0.00P  464P  27.6P  0.26P  
07/25/2017 11:15 CDT3.57P  44.8P  0.00P  464P  27.6P     
07/25/2017 11:30 CDT3.58P  46.5P  0.00P  464P  27.6P     
07/25/2017 11:45 CDT3.58P  46.5P  0.00P  465P  27.6P     
07/25/2017 12:00 CDT3.58P  46.5P  0.00P  465P  27.6P  0.26P  
07/25/2017 12:15 CDT3.59P  48.3P  0.00P  465P  27.7P     
07/25/2017 12:30 CDT3.57P  44.8P  0.00P  465P  27.7P     
07/25/2017 12:45 CDT3.58P  46.5P  0.00P  466P  27.8P     
07/25/2017 13:00 CDT3.58P  46.5P  0.00P  465P  27.9P  0.25P  
07/25/2017 13:15 CDT3.59P  48.3P  0.00P  464P  28.0P     
07/25/2017 13:30 CDT3.58P  46.5P  0.00P  463P  28.2P     
07/25/2017 13:45 CDT3.57P  44.8P  0.00P  462P  28.3P     
07/25/2017 14:00 CDT3.58P  46.5P  0.00P  461P  28.5P  0.24P  
07/25/2017 14:15 CDT3.59P  48.3P  0.00P  461P  28.7P     
07/25/2017 14:30 CDT3.57P  44.8P  0.00P  461P  28.8P     
07/25/2017 14:45 CDT3.58P  46.5P  0.00P  461P  29.0P     
07/25/2017 15:00 CDT3.58P  46.5P  0.00P  461P  29.1P  0.23P  
07/25/2017 15:15 CDT3.58P  46.5P  0.00P  462P  29.2P     
07/25/2017 15:30 CDT3.58P  46.5P  0.00P  461P  29.3P     
07/25/2017 15:45 CDT3.58P  46.5P  0.00P  461P  29.4P     
07/25/2017 16:00 CDT3.57P  44.8P  0.00P  461P  29.5P  0.23P  
07/25/2017 16:15 CDT3.57P  44.8P  0.00P  461P  29.6P     
07/25/2017 16:30 CDT3.57P  44.8P  0.00P  461P  29.6P     
07/25/2017 16:45 CDT3.57P  44.8P  0.00P  460P  29.7P     
07/25/2017 17:00 CDT3.59P  48.3P  0.00P  459P  29.8P  0.23P  
07/25/2017 17:15 CDT3.58P  46.5P  0.00P  459P  29.8P     
07/25/2017 17:30 CDT3.58P  46.5P  0.00P  459P  29.9P     
07/25/2017 17:45 CDT3.58P  46.5P  0.00P  459P  30.0P     
07/25/2017 18:00 CDT3.58P  46.5P  0.00P  458P  30.0P  0.23P  
07/25/2017 18:15 CDT3.57P  44.8P  0.00P  458P  30.1P     
07/25/2017 18:30 CDT3.58P  46.5P  0.00P  458P  30.1P     
07/25/2017 18:45 CDT3.57P  44.8P  0.00P  458P  30.1P     
07/25/2017 19:00 CDT3.58P  46.5P  0.00P  458P  30.0P  0.23P  
07/25/2017 19:15 CDT3.57P  44.8P  0.00P  458P  30.0P     
07/25/2017 19:30 CDT3.57P  44.8P  0.00P  458P  30.0P     
07/25/2017 19:45 CDT3.57P  44.8P  0.00P  458P  30.0P     
07/25/2017 20:00 CDT3.57P  44.8P  0.00P  457P  29.9P  0.23P  
07/25/2017 20:15 CDT3.57P  44.8P  0.00P  457P  29.9P     
07/25/2017 20:30 CDT3.57P  44.8P  0.00P  457P  29.8P     
07/25/2017 20:45 CDT3.57P  44.8P  0.00P  457P  29.8P     
07/25/2017 21:00 CDT3.58P  46.5P  0.00P  457P  29.7P  0.23P  
07/25/2017 21:15 CDT3.58P  46.5P  0.00P  456P  29.6P     
07/25/2017 21:30 CDT3.57P  44.8P  0.00P  456P  29.5P     
07/25/2017 21:45 CDT3.57P  44.8P  0.00P  455P  29.4P     
07/25/2017 22:00 CDT3.57P  44.8P  0.00P  456P  29.3P  0.23P  
07/25/2017 22:15 CDT3.57P  44.8P  0.00P  456P  29.2P     
07/25/2017 22:30 CDT3.57P  44.8P  0.00P  457P  29.2P     
07/25/2017 22:45 CDT3.58P  46.5P  0.00P  457P  29.1P     
07/25/2017 23:00 CDT3.57P  44.8P  0.00P  458P  29.1P  0.23P  
07/25/2017 23:15 CDT3.58P  46.5P  0.00P  459P  29.0P     
07/25/2017 23:30 CDT3.57P  44.8P  0.00P  459P  28.9P     
07/25/2017 23:45 CDT3.58P  46.5P  0.00P  459P  28.9P     
07/26/2017 00:00 CDT3.58P  46.5P  0.00P  459P  28.8P  0.23P  
07/26/2017 00:15 CDT3.57P  44.8P  0.00P  458P  28.8P     
07/26/2017 00:30 CDT3.57P  44.8P  0.00P  458P  28.7P     
07/26/2017 00:45 CDT3.58P  46.5P  0.00P  458P  28.7P     
07/26/2017 01:00 CDT3.58P  46.5P  0.00P  458P  28.6P  0.25P  
07/26/2017 01:15 CDT3.58P  46.5P  0.00P  458P  28.6P     
07/26/2017 01:30 CDT3.57P  44.8P  0.00P  458P  28.6P     
07/26/2017 01:45 CDT3.57P  44.8P  0.00P  458P  28.5P     
07/26/2017 02:00 CDT3.58P  46.5P  0.00P  458P  28.5P  0.24P  
07/26/2017 02:15 CDT3.57P  44.8P  0.00P  459P  28.5P     
07/26/2017 02:30 CDT3.57P  44.8P  0.00P  459P  28.5P     
07/26/2017 02:45 CDT3.57P  44.8P  0.00P  460P  28.4P     
07/26/2017 03:00 CDT3.57P  44.8P  0.00P  460P  28.4P  0.25P  
07/26/2017 03:15 CDT3.58P  46.5P  0.00P  461P  28.4P     
07/26/2017 03:30 CDT3.57P  44.8P  0.00P  461P  28.4P     
07/26/2017 03:45 CDT3.57P  44.8P  0.00P  462P  28.3P     
07/26/2017 04:00 CDT3.57P  44.8P  0.00P  462P  28.3P  0.25P  
07/26/2017 04:15 CDT3.57P  44.8P  0.00P  463P  28.3P     
07/26/2017 04:30 CDT3.57P  44.8P  0.00P  464P  28.3P     
07/26/2017 04:45 CDT3.58P  46.5P  0.00P  464P  28.2P     
07/26/2017 05:00 CDT3.57P  44.8P  0.00P  464P  28.2P  0.24P  
07/26/2017 05:15 CDT3.57P  44.8P  0.00P  464P  28.2P     
07/26/2017 05:30 CDT3.58P  46.5P  0.00P  464P  28.2P     
07/26/2017 05:45 CDT3.57P  44.8P  0.00P  465P  28.1P     
07/26/2017 06:00 CDT3.58P  46.5P  0.00P  465P  28.1P  0.24P  
07/26/2017 06:15 CDT3.58P  46.5P  0.00P  465P  28.0P     
07/26/2017 06:30 CDT3.57P  44.8P  0.00P  464P  28.0P     
07/26/2017 06:45 CDT3.58P  46.5P  0.00P  464P  28.0P     
07/26/2017 07:00 CDT3.58P  46.5P  0.00P  463P  27.9P  0.24P  
07/26/2017 07:15 CDT3.57P  44.8P  0.00P  463P  27.9P     
07/26/2017 07:30 CDT3.57P  44.8P  0.00P  462P  27.8P     
07/26/2017 07:45 CDT3.58P  46.5P  0.00P  463P  27.8P     
07/26/2017 08:00 CDT3.57P  44.8P  0.00P  463P  27.7P  0.24P  
07/26/2017 08:15 CDT3.58P  46.5P  0.00P  463P  27.7P     
07/26/2017 08:30 CDT3.57P  44.8P  0.00P  464P  27.6P     
07/26/2017 08:45 CDT3.58P  46.5P  0.00P  464P  27.5P     
07/26/2017 09:00 CDT3.58P  46.5P  0.00P  464P  27.5P  0.24P  
07/26/2017 09:15 CDT3.58P  46.5P  0.00P  465P  27.4P     
07/26/2017 09:30 CDT3.57P  44.8P  0.00P  465P  27.3P     
07/26/2017 09:45 CDT3.59P  48.3P  0.00P  465P  27.3P     
07/26/2017 10:00 CDT3.58P  46.5P  0.00P  466P  27.2P  0.24P  
07/26/2017 10:15 CDT3.57P  44.8P  0.00P  466P  27.2P     
07/26/2017 10:30 CDT3.58P  46.5P  0.00P  466P  27.2P     
07/26/2017 10:45 CDT3.58P  46.5P  0.00P  467P  27.2P     
07/26/2017 11:00 CDT3.59P  48.3P  0.00P  467P  27.3P  0.24P  
07/26/2017 11:15 CDT3.58P  46.5P  0.00P  466P  27.3P     
07/26/2017 11:30 CDT3.58P  46.5P  0.00P  466P  27.4P     
07/26/2017 11:45 CDT3.57P  44.8P  0.00P  465P  27.5P     
07/26/2017 12:00 CDT3.58P  46.5P  0.00P  464P  27.6P  0.24P  
07/26/2017 12:15 CDT3.57P  44.8P  0.00P  464P  27.7P     
07/26/2017 12:30 CDT3.58P  46.5P  0.00P  463P  27.9P     
07/26/2017 12:45 CDT3.57P  44.8P  0.00P  462P  28.0P     
07/26/2017 13:00 CDT3.57P  44.8P  0.00P  463P  28.1P  0.23P  
07/26/2017 13:15 CDT3.57P  44.8P  0.00P  462P  28.2P     
07/26/2017 13:30 CDT3.57P  44.8P  0.00P  463P  28.4P     
07/26/2017 13:45 CDT3.57P  44.8P  0.00P  463P  28.5P     
07/26/2017 14:00 CDT3.59P  48.3P  0.00P  462P  28.7P  0.23P  
07/26/2017 14:15 CDT3.57P  44.8P  0.00P  462P  28.8P     
07/26/2017 14:30 CDT3.57P  44.8P  0.00P  462P  29.0P     
07/26/2017 14:45 CDT3.58P  46.5P  0.00P  462P  29.1P     
07/26/2017 15:00 CDT3.56P  43.2P  0.00P  461P  29.2P  0.22P  
07/26/2017 15:15 CDT3.57P  44.8P  0.00P  462P  29.4P     
07/26/2017 15:30 CDT3.57P  44.8P  0.00P  460P  29.5P     
07/26/2017 15:45 CDT3.57P  44.8P  0.00P  461P  29.6P     
07/26/2017 16:00 CDT3.57P  44.8P  0.00P  461P  29.8P  0.23P  
07/26/2017 16:15 CDT3.57P  44.8P  0.00P  461P  29.9P     
07/26/2017 16:30 CDT3.57P  44.8P  0.00P  461P  29.9P     
07/26/2017 16:45 CDT3.58P  46.5P  0.00P  461P  30.0P     
07/26/2017 17:00 CDT3.57P  44.8P  0.00P  461P  30.1P  0.23P  
07/26/2017 17:15 CDT3.58P  46.5P  0.00P  461P  30.1P     
07/26/2017 17:30 CDT3.57P  44.8P  0.00P  461P  30.2P     
07/26/2017 17:45 CDT3.58P  46.5P  0.00P  461P  30.2P     
07/26/2017 18:00 CDT3.57P  44.8P  0.00P  460P  30.2P  0.23P  
07/26/2017 18:15 CDT3.57P  44.8P  0.00P  461P  30.2P     
07/26/2017 18:30 CDT3.57P  44.8P  0.00P  460P  30.2P     
07/26/2017 18:45 CDT3.57P  44.8P  0.00P  461P  30.1P     
07/26/2017 19:00 CDT3.58P  46.5P  0.00P  461P  30.1P  0.22P  
07/26/2017 19:15 CDT3.57P  44.8P  0.00P  461P  30.0P     
07/26/2017 19:30 CDT3.57P  44.8P  0.00P  459P  29.9P     
07/26/2017 19:45 CDT3.56P  43.2P  0.00P  459P  29.8P     
07/26/2017 20:00 CDT3.57P  44.8P  0.00P  459P  29.8P  0.22P  
07/26/2017 20:15 CDT3.57P  44.8P  0.00P  460P  29.8P     
07/26/2017 20:30 CDT3.57P  44.8P  0.00P  460P  29.7P     
07/26/2017 20:45 CDT3.57P  44.8P  0.00P  461P  29.6P     
07/26/2017 21:00 CDT3.57P  44.8P  0.00P  461P  29.5P  0.23P  
07/26/2017 21:15 CDT3.57P  44.8P  0.00P  462P  29.4P     
07/26/2017 21:30 CDT3.57P  44.8P  0.00P  462P  29.4P     
07/26/2017 21:45 CDT3.57P  44.8P  0.00P  462P  29.3P     
07/26/2017 22:00 CDT3.57P  44.8P  0.00P  462P  29.2P  0.24P  
07/26/2017 22:15 CDT3.58P  46.5P  0.00P  462P  29.1P     
07/26/2017 22:30 CDT3.57P  44.8P  0.00P  462P  29.1P     
07/26/2017 22:45 CDT3.57P  44.8P  0.00P  462P  29.0P     
07/26/2017 23:00 CDT3.57P  44.8P  0.00P  462P  28.9P  0.23P  
07/26/2017 23:15 CDT3.57P  44.8P  0.00P  462P  28.9P     
07/26/2017 23:30 CDT3.57P  44.8P  0.00P  462P  28.8P     
07/26/2017 23:45 CDT3.57P  44.8P  0.00P  462P  28.7P     
07/27/2017 00:00 CDT3.56P  43.2P  0.00P  461P  28.6P  0.24P  
07/27/2017 00:15 CDT3.57P  44.8P  0.00P  461P  28.6P     
07/27/2017 00:30 CDT3.57P  44.8P  0.00P  460P  28.5P     
07/27/2017 00:45 CDT3.57P  44.8P  0.00P  460P  28.5P     
07/27/2017 01:00 CDT3.57P  44.8P  0.00P  460P  28.4P  0.24P  
07/27/2017 01:15 CDT3.57P  44.8P  0.00P  460P  28.4P     
07/27/2017 01:30 CDT3.57P  44.8P  0.00P  460P  28.3P     
07/27/2017 01:45 CDT3.56P  43.2P  0.00P  460P  28.3P     
07/27/2017 02:00 CDT3.57P  44.8P  0.00P  460P  28.3P  0.25P  
07/27/2017 02:15 CDT3.57P  44.8P  0.00P  460P  28.2P     
07/27/2017 02:30 CDT3.57P  44.8P  0.00P  460P  28.2P     
07/27/2017 02:45 CDT3.57P  44.8P  0.00P  461P  28.2P     
07/27/2017 03:00 CDT3.56P  43.2P  0.00P  461P  28.2P  0.24P  
07/27/2017 03:15 CDT3.57P  44.8P  0.00P  461P  28.2P     
07/27/2017 03:30 CDT3.57P  44.8P  0.00P  461P  28.1P     
07/27/2017 03:45 CDT3.57P  44.8P  0.00P  462P  28.1P     
07/27/2017 04:00 CDT3.57P  44.8P  0.00P  462P  28.1P  0.24P  
07/27/2017 04:15 CDT3.56P  43.2P  0.00P  463P  28.1P     
07/27/2017 04:30 CDT3.57P  44.8P  0.00P  463P  28.0P     
07/27/2017 04:45 CDT3.57P  44.8P  0.00P  463P  28.0P     
07/27/2017 05:00 CDT3.56P  43.2P  0.00P  463P  28.0P  0.23P  
07/27/2017 05:15 CDT3.57P  44.8P  0.00P  464P  28.0P     
07/27/2017 05:30 CDT3.56P  43.2P  0.00P  464P  27.9P     
07/27/2017 05:45 CDT3.57P  44.8P  0.00P  464P  27.9P     
07/27/2017 06:00 CDT3.57P  44.8P  0.00P  464P  27.8P  0.23P  
07/27/2017 06:15 CDT3.57P  44.8P  0.00P  465P  27.8P     
07/27/2017 06:30 CDT3.57P  44.8P  0.00P  465P  27.7P     
07/27/2017 06:45 CDT3.57P  44.8P  0.00P  465P  27.7P     
07/27/2017 07:00 CDT3.57P  44.8P  0.00P  465P  27.6P  0.23P  
07/27/2017 07:15 CDT3.57P  44.8P  0.00P  464P  27.6P     
07/27/2017 07:30 CDT3.57P  44.8P  0.00P  463P  27.5P     
07/27/2017 07:45 CDT3.57P  44.8P  0.00P  463P  27.5P     
07/27/2017 08:00 CDT3.57P  44.8P  0.00P  462P  27.5P  0.23P  
07/27/2017 08:15 CDT3.57P  44.8P  0.00P  463P  27.4P     
07/27/2017 08:30 CDT3.57P  44.8P  0.00P  463P  27.4P     
07/27/2017 08:45 CDT3.57P  44.8P  0.00P  464P  27.3P     
07/27/2017 09:00 CDT3.57P  44.8P  0.00P  464P  27.2P  0.24P  
07/27/2017 09:15 CDT3.57P  44.8P  0.00P  464P  27.2P     
07/27/2017 09:30 CDT3.57P  44.8P  0.00P  464P  27.2P     
07/27/2017 09:45 CDT3.57P  44.8P  0.00P  465P  27.1P     
07/27/2017 10:00 CDT3.58P  46.5P  0.00P  465P  27.1P  0.24P  
07/27/2017 10:15 CDT3.56P  43.2P  0.00P  465P  27.0P     
07/27/2017 10:30 CDT3.57P  44.8P  0.00P  466P  27.0P     
07/27/2017 10:45 CDT3.57P  44.8P  0.00P  466P  27.1P     
07/27/2017 11:00 CDT3.57P  44.8P  0.00P  466P  27.1P  0.24P  
07/27/2017 11:15 CDT3.58P  46.5P  0.00P  466P  27.2P     
07/27/2017 11:30 CDT3.57P  44.8P  0.00P  465P  27.3P     

Explanation
  P  Provisional data subject to revision.